Time;durP1;ratioP1;P1;durP2;ratioP2;P2;SDS_P1;SDS_P2;PMS_P1;PMS_P2;Temp;Humidity;BMP_temperature;BMP_pressure;BME280_temperature;BME280_humidity;BME280_pressure;Samples;Min_cycle;Max_cycle;Signal;HPM_P1;HPM_P2
2020/12/24 00:00:45;;;;;;;;;;;;;;;5.39;93.94;99335.69;4917272;29;19927;-74
2020/12/24 00:03:14;;;;;;;;;;;;;;;5.38;93.86;99344.94;4917408;29;19927;-74
2020/12/24 00:05:42;;;;;;;;;;;;;;;5.39;93.81;99349.19;4917281;29;19934;-74
2020/12/24 00:08:09;;;;;;;;;;;;;;;5.40;93.93;99348.34;4917145;29;19938;-74
2020/12/24 00:10:37;;;;;;;;;;;;;;;5.41;93.96;99360.19;4917365;29;19994;-74
2020/12/24 00:13:04;;;;;;;;;;;;;;;5.42;93.98;99341.63;4917240;29;20070;-75
2020/12/24 00:15:32;;;;;;;;;;;;;;;5.43;94.09;99352.59;4917395;29;20405;-74
2020/12/24 00:18:17;;;;;;;;;;;;;;;5.43;93.96;99352.59;4919614;29;19934;-73
2020/12/24 00:20:44;;;;;;;;;;;;;;;5.45;94.00;99357.72;4920711;29;19927;-74
2020/12/24 00:23:12;;;;;;;;;;;;;;;5.44;93.98;99359.38;4920592;29;19927;-73
2020/12/24 00:25:39;;;;;;;;;;;;;;;5.43;94.04;99353.47;4920574;29;19959;-74
2020/12/24 00:28:07;;;;;;;;;;;;;;;5.43;93.93;99347.53;4920569;29;20057;-74
2020/12/24 00:30:35;;;;;;;;;;;;;;;5.42;93.95;99339.09;4920843;29;19983;-75
2020/12/24 00:33:02;;;;;;;;;;;;;;;5.42;94.01;99336.56;4920491;29;19975;-74
2020/12/24 00:35:30;;;;;;;;;;;;;;;5.46;93.89;99337.47;4920684;29;19938;-74
2020/12/24 00:37:58;;;;;;;;;;;;;;;5.40;93.97;99333.16;4920559;29;19927;-74
2020/12/24 00:40:27;;;;;;;;;;;;;;;5.41;94.13;99334.88;4919376;29;19978;-74
2020/12/24 00:42:54;;;;;;;;;;;;;;;5.43;94.10;99333.22;4920241;29;19934;-74
2020/12/24 00:45:21;;;;;;;;;;;;;;;5.46;94.24;99336.63;4920174;29;19927;-74
2020/12/24 00:47:50;;;;;;;;;;;;;;;5.46;94.45;99326.50;4920144;29;19931;-74
2020/12/24 00:50:18;;;;;;;;;;;;;;;5.45;94.01;99334.94;4918973;29;19997;-74
2020/12/24 00:52:46;;;;;;;;;;;;;;;5.43;94.17;99337.41;4920061;29;19927;-74
2020/12/24 00:55:13;;;;;;;;;;;;;;;5.42;94.15;99343.34;4919127;29;20374;-74
2020/12/24 00:57:41;;;;;;;;;;;;;;;5.43;93.82;99343.34;4918809;29;19936;-74
2020/12/24 01:00:08;;;;;;;;;;;;;;;5.45;94.02;99355.19;4918782;29;19977;-74
2020/12/24 01:02:36;;;;;;;;;;;;;;;5.44;94.03;99354.31;4920142;29;19975;-74
2020/12/24 01:05:04;;;;;;;;;;;;;;;5.43;94.23;99357.66;4920202;29;20385;-74
2020/12/24 01:07:35;;;;;;;;;;;;;;;5.40;94.03;99353.41;4919703;29;19927;-74
2020/12/24 01:10:05;;;;;;;;;;;;;;;5.41;94.20;99360.19;4919809;29;19927;-74
2020/12/24 01:12:34;;;;;;;;;;;;;;;5.36;94.18;99369.38;4918614;29;19927;-74
2020/12/24 01:15:01;;;;;;;;;;;;;;;5.35;94.11;99365.16;4919756;29;19927;-74
2020/12/24 01:17:29;;;;;;;;;;;;;;;5.36;93.89;99366.84;4919503;29;19935;-74
2020/12/24 01:19:56;;;;;;;;;;;;;;;5.39;94.06;99361.84;4918462;29;19927;-74
2020/12/24 01:22:24;;;;;;;;;;;;;;;5.40;94.10;99352.56;4919618;29;20018;-74
2020/12/24 01:24:51;;;;;;;;;;;;;;;5.40;94.14;99348.34;4919465;29;19934;-74
2020/12/24 01:27:19;;;;;;;;;;;;;;;5.39;94.14;99346.66;4918939;29;19927;-74
2020/12/24 01:29:47;;;;;;;;;;;;;;;5.37;94.08;99340.72;4919304;29;19931;-74
2020/12/24 01:32:14;;;;;;;;;;;;;;;5.39;94.15;99334.00;4919344;29;19931;-74
2020/12/24 01:34:41;;;;;;;;;;;;;;;5.37;94.12;99333.13;4919352;29;19927;-74
2020/12/24 01:37:09;;;;;;;;;;;;;;;5.37;93.99;99333.13;4919195;29;20386;-74
2020/12/24 01:39:37;;;;;;;;;;;;;;;5.37;94.07;99338.19;4919256;29;19983;-74
2020/12/24 01:42:04;;;;;;;;;;;;;;;5.36;94.31;99335.63;4919271;29;19970;-74
2020/12/24 01:44:32;;;;;;;;;;;;;;;5.36;94.11;99323.84;4919127;29;19983;-74
2020/12/24 01:47:00;;;;;;;;;;;;;;;5.32;94.27;99324.63;4919196;29;20047;-74
2020/12/24 01:49:27;;;;;;;;;;;;;;;5.32;94.30;99309.47;4919133;29;19931;-74
2020/12/24 01:51:57;;;;;;;;;;;;;;;5.31;94.37;99307.75;4918959;29;19934;-74
2020/12/24 01:54:24;;;;;;;;;;;;;;;5.29;94.43;99306.88;4919002;29;19927;-74
2020/12/24 01:56:52;;;;;;;;;;;;;;;5.29;94.29;99289.16;4918876;29;20486;-74
2020/12/24 01:59:22;;;;;;;;;;;;;;;5.28;94.17;99292.50;4918881;29;19927;-74
2020/12/24 02:01:51;;;;;;;;;;;;;;;5.28;94.06;99284.94;4918857;29;19931;-74
2020/12/24 02:04:18;;;;;;;;;;;;;;;5.21;94.09;99280.63;4918804;29;19927;-74
2020/12/24 02:06:48;;;;;;;;;;;;;;;5.09;93.93;99280.44;4918558;29;19934;-74
2020/12/24 02:09:15;;;;;;;;;;;;;;;5.09;94.25;99275.38;4918722;29;20013;-74
2020/12/24 02:11:43;;;;;;;;;;;;;;;5.06;94.14;99274.50;4918699;29;19955;-74
2020/12/24 02:14:10;;;;;;;;;;;;;;;5.07;94.17;99271.13;4918648;29;19927;-74
2020/12/24 02:16:38;;;;;;;;;;;;;;;5.03;93.95;99262.66;4918561;29;20393;-74
2020/12/24 02:19:06;;;;;;;;;;;;;;;5.01;94.32;99260.94;4918493;29;19927;-73
2020/12/24 02:21:36;;;;;;;;;;;;;;;5.04;94.21;99261.81;4918563;29;20023;-74
2020/12/24 02:24:04;;;;;;;;;;;;;;;5.01;94.15;99256.75;4918460;29;20389;-74
2020/12/24 02:26:31;;;;;;;;;;;;;;;4.99;94.31;99252.50;4918668;29;20068;-74
2020/12/24 02:28:59;;;;;;;;;;;;;;;4.97;93.85;99254.97;4918676;29;19954;-74
2020/12/24 02:31:27;;;;;;;;;;;;;;;4.96;94.37;99253.28;4917357;29;19927;-74
2020/12/24 02:33:54;;;;;;;;;;;;;;;4.95;94.45;99266.75;4918251;29;19927;-74
2020/12/24 02:36:21;;;;;;;;;;;;;;;4.95;93.93;99264.22;4918173;29;19980;-74
2020/12/24 02:38:50;;;;;;;;;;;;;;;5.00;94.33;99265.13;4918271;29;19959;-75
2020/12/24 02:41:17;;;;;;;;;;;;;;;4.97;94.17;99265.09;4917935;29;19927;-74
2020/12/24 02:43:47;;;;;;;;;;;;;;;4.97;94.36;99264.22;4918136;29;19931;-73
2020/12/24 02:46:14;;;;;;;;;;;;;;;5.00;94.23;99254.16;4918168;29;19970;-74
2020/12/24 02:48:42;;;;;;;;;;;;;;;4.99;94.32;99244.91;4918085;29;19927;-74
2020/12/24 02:51:09;;;;;;;;;;;;;;;4.93;94.15;99253.25;4918058;29;19941;-74
2020/12/24 02:53:36;;;;;;;;;;;;;;;4.91;94.30;99254.03;4917966;29;19967;-74
2020/12/24 02:56:05;;;;;;;;;;;;;;;4.89;94.34;99243.91;4918023;29;19934;-74
2020/12/24 02:58:33;;;;;;;;;;;;;;;4.91;94.25;99242.25;4917962;29;19927;-74
2020/12/24 03:01:01;;;;;;;;;;;;;;;4.91;93.88;99244.78;4917791;29;19938;-74
2020/12/24 03:03:31;;;;;;;;;;;;;;;4.92;94.00;99246.47;4917911;29;20370;-74
2020/12/24 03:05:59;;;;;;;;;;;;;;;4.89;93.95;99238.88;4917920;29;19927;-74
2020/12/24 03:08:27;;;;;;;;;;;;;;;4.90;94.08;99238.00;4917862;29;19927;-74
2020/12/24 03:10:54;;;;;;;;;;;;;;;4.90;94.10;99224.50;4918090;29;19927;-74
2020/12/24 03:13:22;;;;;;;;;;;;;;;4.87;94.31;99222.78;4917771;29;19927;-74
2020/12/24 03:15:50;;;;;;;;;;;;;;;4.86;94.27;99216.06;4917774;29;19958;-74
2020/12/24 03:18:17;;;;;;;;;;;;;;;4.89;94.20;99206.00;4917641;29;19934;-73
2020/12/24 03:20:44;;;;;;;;;;;;;;;4.89;94.29;99213.59;4917766;29;19927;-74
2020/12/24 03:23:12;;;;;;;;;;;;;;;4.76;93.98;99214.22;4917933;29;19927;-74
2020/12/24 03:25:39;;;;;;;;;;;;;;;4.78;94.18;99207.50;4917674;29;20381;-74
2020/12/24 03:28:06;;;;;;;;;;;;;;;4.81;94.29;99207.56;4917658;29;19927;-74
2020/12/24 03:30:36;;;;;;;;;;;;;;;4.74;94.07;99208.28;4917878;29;19927;-74
2020/12/24 03:33:04;;;;;;;;;;;;;;;4.70;94.37;99209.09;4916390;29;19979;-74
2020/12/24 03:35:32;;;;;;;;;;;;;;;4.69;94.08;99207.38;4917573;29;19934;-73
2020/12/24 03:37:59;;;;;;;;;;;;;;;4.64;94.14;99194.69;4917565;29;20389;-74
2020/12/24 03:40:26;;;;;;;;;;;;;;;4.67;93.97;99197.25;4917548;29;20292;-74
2020/12/24 03:42:54;;;;;;;;;;;;;;;4.64;94.09;99198.88;4916409;29;20017;-74
2020/12/24 03:45:22;;;;;;;;;;;;;;;4.64;94.31;99198.88;4917533;29;19978;-74
2020/12/24 03:47:50;;;;;;;;;;;;;;;4.64;94.28;99186.25;4917494;29;19995;-74
2020/12/24 03:50:35;;;;;;;;;;;;;;;4.65;93.91;99170.25;4918002;29;19927;-73
2020/12/24 03:53:02;;;;;;;;;;;;;;;4.60;94.04;99161.75;4921148;29;19927;-74
2020/12/24 03:55:31;;;;;;;;;;;;;;;4.59;94.08;99160.91;4921150;29;19929;-73
2020/12/24 03:57:58;;;;;;;;;;;;;;;4.62;93.97;99165.16;4920975;29;19967;-74
2020/12/24 04:00:26;;;;;;;;;;;;;;;4.48;94.14;99164.97;4920951;29;19961;-74
2020/12/24 04:02:54;;;;;;;;;;;;;;;4.54;94.17;99154.06;4919818;29;19935;-73
2020/12/24 04:05:21;;;;;;;;;;;;;;;4.62;93.92;99150.00;4920991;29;19927;-74
2020/12/24 04:07:49;;;;;;;;;;;;;;;4.67;93.99;99158.50;4920802;29;19935;-74
2020/12/24 04:10:16;;;;;;;;;;;;;;;4.65;94.18;99150.03;4920911;29;20382;-74
2020/12/24 04:12:44;;;;;;;;;;;;;;;4.52;94.00;99150.69;4920874;29;19927;-74
2020/12/24 04:15:11;;;;;;;;;;;;;;;4.56;94.19;99149.88;4920756;29;20377;-74
2020/12/24 04:17:39;;;;;;;;;;;;;;;4.57;94.18;99141.50;4920720;29;19955;-74
2020/12/24 04:20:07;;;;;;;;;;;;;;;4.58;94.13;99133.09;4920772;29;19928;-74
2020/12/24 04:22:35;;;;;;;;;;;;;;;4.57;93.23;99136.44;4920631;29;19943;-74
2020/12/24 04:25:03;;;;;;;;;;;;;;;4.52;94.05;99143.09;4920661;29;19933;-74
2020/12/24 04:27:31;;;;;;;;;;;;;;;4.57;93.60;99136.44;4920454;29;19951;-74
2020/12/24 04:29:59;;;;;;;;;;;;;;;4.57;94.08;99136.44;4920537;29;19934;-74
2020/12/24 04:32:26;;;;;;;;;;;;;;;4.49;94.29;99132.94;4920363;29;19953;-74
2020/12/24 04:34:53;;;;;;;;;;;;;;;4.53;94.01;99124.59;4920464;29;20305;-74
2020/12/24 04:37:22;;;;;;;;;;;;;;;4.59;93.94;99119.63;4920365;29;19927;-74
2020/12/24 04:39:49;;;;;;;;;;;;;;;4.57;94.19;99118.75;4920620;29;20288;-74
2020/12/24 04:42:16;;;;;;;;;;;;;;;4.53;94.06;99130.50;4920237;29;20370;-74
2020/12/24 04:44:48;;;;;;;;;;;;;;;4.52;94.09;99133.00;4920263;29;19934;-74
2020/12/24 04:47:16;;;;;;;;;;;;;;;4.57;94.09;99123.81;4920261;29;19933;-74
2020/12/24 04:49:43;;;;;;;;;;;;;;;4.53;93.86;99134.72;4918983;29;20014;-74
2020/12/24 04:52:12;;;;;;;;;;;;;;;4.49;94.05;99123.69;4920068;29;20366;-74
2020/12/24 04:54:41;;;;;;;;;;;;;;;4.55;94.30;99120.41;4920112;29;19931;-73
2020/12/24 04:57:09;;;;;;;;;;;;;;;4.56;94.25;99117.03;4920418;29;20441;-74
2020/12/24 04:59:36;;;;;;;;;;;;;;;4.56;94.09;99104.41;4920172;29;19955;-74
2020/12/24 05:02:04;;;;;;;;;;;;;;;4.55;93.98;99107.78;4919663;29;19951;-74
2020/12/24 05:04:32;;;;;;;;;;;;;;;4.53;94.33;99114.50;4918248;29;20010;-74
2020/12/24 05:07:01;;;;;;;;;;;;;;;4.56;94.09;99114.50;4919705;29;19934;-74
2020/12/24 05:09:28;;;;;;;;;;;;;;;4.57;94.20;99116.22;4919794;29;19927;-73
2020/12/24 05:11:57;;;;;;;;;;;;;;;4.52;94.32;99133.00;4919763;29;19934;-74
2020/12/24 05:14:24;;;;;;;;;;;;;;;4.52;94.22;99130.47;4919795;29;19927;-74
2020/12/24 05:16:59;;;;;;;;;;;;;;;4.56;93.96;99122.09;4919884;29;19927;-74
2020/12/24 05:19:27;;;;;;;;;;;;;;;4.58;94.26;99128.03;4920041;29;19934;-74
2020/12/24 05:21:55;;;;;;;;;;;;;;;4.53;93.83;99124.59;4918403;29;19927;-73
2020/12/24 05:24:23;;;;;;;;;;;;;;;4.53;94.24;99129.66;4919520;29;19927;-74
2020/12/24 05:26:50;;;;;;;;;;;;;;;4.54;93.99;99127.13;4919525;29;19931;-74
2020/12/24 05:29:19;;;;;;;;;;;;;;;4.57;93.98;99131.38;4919443;29;19963;-74
2020/12/24 05:31:47;;;;;;;;;;;;;;;4.60;93.99;99136.50;4918235;29;19970;-74
2020/12/24 05:34:19;;;;;;;;;;;;;;;4.53;94.24;99138.09;4919629;29;20393;-74
2020/12/24 05:36:47;;;;;;;;;;;;;;;4.55;93.75;99143.16;4919268;29;20021;-74
2020/12/24 05:39:15;;;;;;;;;;;;;;;4.50;94.23;99142.25;4919310;29;19927;-74
2020/12/24 05:41:42;;;;;;;;;;;;;;;4.53;94.01;99134.72;4919219;29;19933;-74
2020/12/24 05:44:10;;;;;;;;;;;;;;;4.56;94.33;99128.00;4919495;29;19927;-74
2020/12/24 05:46:40;;;;;;;;;;;;;;;4.57;94.25;99121.28;4933763;29;19934;-74
2020/12/24 05:49:09;;;;;;;;;;;;;;;4.57;94.26;99121.28;4919193;29;19928;-73
2020/12/24 05:51:54;;;;;;;;;;;;;;;4.60;94.20;99128.91;4919115;29;19934;-73
2020/12/24 05:54:22;;;;;;;;;;;;;;;4.60;94.22;99137.34;4918962;29;19975;-74
2020/12/24 05:56:49;;;;;;;;;;;;;;;4.58;94.12;99143.22;4918904;29;20445;-74
2020/12/24 05:59:17;;;;;;;;;;;;;;;4.62;93.96;99152.53;4918920;29;20382;-74
2020/12/24 06:01:57;;;;;;;;;;;;;;;4.64;93.89;99149.19;4895679;29;19935;-76
2020/12/24 06:04:28;;;;;;;;;;;;;;;4.62;93.72;99145.78;4889017;29;19934;-75
2020/12/24 06:06:59;;;;;;;;;;;;;;;4.68;94.15;99145.00;4886525;29;20290;-75
2020/12/24 06:09:26;;;;;;;;;;;;;;;4.69;94.23;99126.50;4887967;29;19928;-75
2020/12/24 06:11:54;;;;;;;;;;;;;;;4.71;93.86;99132.41;4901873;29;19927;-75
2020/12/24 06:14:29;;;;;;;;;;;;;;;4.72;94.20;99131.59;4892505;29;19928;-74
2020/12/24 06:17:18;;;;;;;;;;;;;;;4.69;94.29;99122.31;4836767;29;19937;-75
2020/12/24 06:19:47;;;;;;;;;;;;;;;4.68;94.00;99124.78;4824290;29;19932;-76
2020/12/24 06:22:17;;;;;;;;;;;;;;;4.66;94.19;99121.41;4838231;29;19928;-74
2020/12/24 06:24:46;;;;;;;;;;;;;;;4.67;93.93;99110.47;4837575;29;19936;-74
2020/12/24 06:27:17;;;;;;;;;;;;;;;4.69;94.00;99118.94;4838221;29;19929;-76
2020/12/24 06:29:45;;;;;;;;;;;;;;;4.66;94.00;99121.41;4824134;29;19964;-75
2020/12/24 06:32:13;;;;;;;;;;;;;;;4.66;93.72;99122.25;4837206;29;19928;-75
2020/12/24 06:34:42;;;;;;;;;;;;;;;4.73;94.26;99128.22;4837691;29;19962;-75
2020/12/24 06:37:11;;;;;;;;;;;;;;;4.72;93.99;99121.50;4823539;29;20026;-77
2020/12/24 06:39:41;;;;;;;;;;;;;;;4.71;94.07;99115.59;4808000;29;19998;-76
2020/12/24 06:42:12;;;;;;;;;;;;;;;4.71;93.89;99109.69;4823757;29;19952;-76
2020/12/24 06:44:43;;;;;;;;;;;;;;;4.71;93.80;99094.50;4823616;29;19937;-76
2020/12/24 06:47:13;;;;;;;;;;;;;;;4.75;94.32;99096.28;4823428;29;19929;-75
2020/12/24 06:49:40;;;;;;;;;;;;;;;4.71;93.69;99102.09;4823059;29;19955;-76
2020/12/24 06:52:08;;;;;;;;;;;;;;;4.71;94.07;99105.47;4823370;29;20397;-76
2020/12/24 06:54:38;;;;;;;;;;;;;;;4.68;93.97;99102.03;4856419;29;19992;-76
2020/12/24 06:57:08;;;;;;;;;;;;;;;4.68;93.84;99114.69;4880217;29;20014;-75
2020/12/24 06:59:36;;;;;;;;;;;;;;;4.65;94.13;99107.09;4880437;29;19927;-76
2020/12/24 07:02:04;;;;;;;;;;;;;;;4.69;94.21;99086.06;4880316;29;19928;-76
2020/12/24 07:04:34;;;;;;;;;;;;;;;4.70;93.95;99083.53;4880248;29;19936;-75
2020/12/24 07:07:02;;;;;;;;;;;;;;;4.75;94.15;99071.00;4880209;29;19928;-75
2020/12/24 07:09:32;;;;;;;;;;;;;;;4.71;93.79;99077.69;4880197;29;19935;-75
2020/12/24 07:12:00;;;;;;;;;;;;;;;4.69;94.05;99070.91;4880300;29;20374;-75
2020/12/24 07:14:28;;;;;;;;;;;;;;;4.71;93.99;99071.78;4880153;29;20366;-75
2020/12/24 07:16:55;;;;;;;;;;;;;;;4.74;93.50;99070.16;4880516;29;19975;-76
2020/12/24 07:19:23;;;;;;;;;;;;;;;4.79;94.22;99064.28;4880074;29;20010;-75
2020/12/24 07:21:52;;;;;;;;;;;;;;;4.84;94.08;99066.03;4879052;29;19932;-75
2020/12/24 07:24:25;;;;;;;;;;;;;;;4.85;93.81;99072.78;4880168;29;20442;-76
2020/12/24 07:26:55;;;;;;;;;;;;;;;4.86;93.76;99074.50;4882452;29;19931;-75
2020/12/24 07:29:23;;;;;;;;;;;;;;;4.90;94.01;99071.16;4883995;29;19978;-75
2020/12/24 07:31:50;;;;;;;;;;;;;;;4.95;94.01;99079.66;4882976;29;20417;-76
2020/12/24 07:34:21;;;;;;;;;;;;;;;4.96;94.12;99096.53;4883852;29;19927;-76
2020/12/24 07:36:49;;;;;;;;;;;;;;;4.98;94.08;99094.88;4884225;29;20338;-75
2020/12/24 07:39:16;;;;;;;;;;;;;;;4.98;93.99;99094.88;4882542;29;19935;-75
2020/12/24 07:41:44;;;;;;;;;;;;;;;4.98;93.94;99094.00;4882563;29;19935;-75
2020/12/24 07:44:11;;;;;;;;;;;;;;;4.96;94.09;99081.38;4883775;29;19938;-75
2020/12/24 07:46:39;;;;;;;;;;;;;;;4.96;93.99;99075.44;4883956;29;19927;-75
2020/12/24 07:49:07;;;;;;;;;;;;;;;4.99;94.02;99081.38;4882791;29;19940;-76
2020/12/24 07:51:35;;;;;;;;;;;;;;;4.99;93.94;99065.38;4882492;29;19959;-76
2020/12/24 07:54:05;;;;;;;;;;;;;;;5.00;94.01;99065.38;4882353;29;19928;-76
2020/12/24 07:56:33;;;;;;;;;;;;;;;5.00;93.92;99067.06;4883580;29;19928;-76
2020/12/24 07:59:01;;;;;;;;;;;;;;;5.00;93.95;99065.38;4882436;29;19974;-76
2020/12/24 08:01:28;;;;;;;;;;;;;;;5.02;93.99;99061.19;4882124;29;19928;-76
2020/12/24 08:03:57;;;;;;;;;;;;;;;5.05;94.17;99062.91;4898042;29;19935;-76
2020/12/24 08:06:25;;;;;;;;;;;;;;;5.07;94.20;99057.03;4881948;29;19928;-76
2020/12/24 08:08:53;;;;;;;;;;;;;;;5.10;94.06;99049.50;4883335;29;20351;-76
2020/12/24 08:11:21;;;;;;;;;;;;;;;5.10;93.97;99059.59;4883277;29;19932;-76
2020/12/24 08:13:55;;;;;;;;;;;;;;;5.12;94.27;99057.94;4883209;29;20332;-76
2020/12/24 08:16:23;;;;;;;;;;;;;;;5.17;94.00;99066.44;4882035;29;19928;-76
2020/12/24 08:18:50;;;;;;;;;;;;;;;5.20;94.07;99070.66;4883046;29;20413;-76
2020/12/24 08:21:21;;;;;;;;;;;;;;;5.23;93.81;99076.59;4883061;29;19927;-76
2020/12/24 08:23:49;;;;;;;;;;;;;;;5.25;93.96;99074.94;4883057;29;20015;-76
2020/12/24 08:26:16;;;;;;;;;;;;;;;5.28;94.14;99079.16;4882969;29;19932;-76
2020/12/24 08:28:48;;;;;;;;;;;;;;;5.30;94.07;99075.81;4883013;29;20022;-76
2020/12/24 08:31:16;;;;;;;;;;;;;;;5.32;93.96;99065.75;4882811;29;19976;-76
2020/12/24 08:33:43;;;;;;;;;;;;;;;5.33;93.88;99059.81;4882890;29;19963;-76
2020/12/24 08:36:12;;;;;;;;;;;;;;;5.36;94.00;99058.19;4881934;29;20022;-75
2020/12/24 08:38:40;;;;;;;;;;;;;;;5.37;94.02;99059.88;4882661;29;19928;-76
2020/12/24 08:41:19;;;;;;;;;;;;;;;5.39;94.23;99063.28;4882782;29;20446;-76
2020/12/24 08:43:49;;;;;;;;;;;;;;;5.42;94.17;99070.88;4882752;29;20293;-76
2020/12/24 08:46:17;;;;;;;;;;;;;;;5.45;94.35;99074.31;4882792;29;19935;-76
2020/12/24 08:48:44;;;;;;;;;;;;;;;5.46;93.89;99073.44;4882706;29;19992;-76
2020/12/24 08:51:12;;;;;;;;;;;;;;;5.49;94.21;99068.44;4882543;29;20390;-76
2020/12/24 08:53:56;;;;;;;;;;;;;;;5.50;94.45;99070.09;4882628;29;20294;-76
2020/12/24 08:56:24;;;;;;;;;;;;;;;5.51;93.88;99066.75;4881547;29;19980;-76
2020/12/24 08:58:52;;;;;;;;;;;;;;;5.53;94.16;99052.44;4881277;29;19932;-76
2020/12/24 09:01:20;;;;;;;;;;;;;;;5.53;94.28;99049.91;4866053;29;19928;-76
2020/12/24 09:03:47;;;;;;;;;;;;;;;5.53;94.27;99050.75;4865975;29;20043;-76
2020/12/24 09:06:15;;;;;;;;;;;;;;;5.52;94.17;99043.97;4882091;29;19927;-74
2020/12/24 09:08:48;;;;;;;;;;;;;;;5.52;94.16;99053.28;4882212;29;19928;-72
2020/12/24 09:11:25;;;;;;;;;;;;;;;5.55;94.16;99058.34;4882692;29;19934;-72
2020/12/24 09:13:55;;;;;;;;;;;;;;;5.58;94.18;99059.25;4882251;29;19983;-71
2020/12/24 09:16:23;;;;;;;;;;;;;;;5.60;94.17;99060.09;4882256;29;19928;-72
2020/12/24 09:19:00;;;;;;;;;;;;;;;5.61;94.04;99063.47;4882034;29;19928;-72
2020/12/24 09:21:28;;;;;;;;;;;;;;;5.62;94.16;99060.94;4882164;29;19928;-72
2020/12/24 09:24:10;;;;;;;;;;;;;;;5.63;94.37;99062.66;4882097;29;20031;-72
2020/12/24 09:26:40;;;;;;;;;;;;;;;5.65;94.16;99060.13;4882287;29;19927;-72
2020/12/24 09:29:09;;;;;;;;;;;;;;;5.64;94.83;99058.47;4882560;29;19934;-71
2020/12/24 09:31:36;;;;;;;;;;;;;;;5.63;94.09;99056.75;4891504;29;20293;-72
2020/12/24 09:34:03;;;;;;;;;;;;;;;5.63;93.95;99046.63;4919354;29;19927;-71
2020/12/24 09:36:31;;;;;;;;;;;;;;;5.56;94.35;99024.63;4919547;29;20429;-72
2020/12/24 09:38:58;;;;;;;;;;;;;;;5.65;94.04;99044.94;4913245;29;19943;-72
2020/12/24 09:41:25;;;;;;;;;;;;;;;5.65;94.09;99050.88;4902379;29;19928;-71
2020/12/24 09:43:53;;;;;;;;;;;;;;;5.67;94.23;99048.34;4900263;29;19977;-71
2020/12/24 09:46:21;;;;;;;;;;;;;;;5.65;94.25;99039.88;4900253;29;19978;-71
2020/12/24 09:48:48;;;;;;;;;;;;;;;5.63;94.58;99037.34;4899930;29;19931;-71
2020/12/24 09:51:16;;;;;;;;;;;;;;;5.65;94.23;99037.34;4900186;29;19935;-72
2020/12/24 09:53:43;;;;;;;;;;;;;;;5.65;94.20;99039.88;4900028;29;20374;-72
2020/12/24 09:56:11;;;;;;;;;;;;;;;5.64;94.34;99038.22;4900441;29;19995;-75
2020/12/24 09:58:38;;;;;;;;;;;;;;;5.68;94.52;99045.84;4900279;29;19983;-75
2020/12/24 10:01:05;;;;;;;;;;;;;;;5.70;94.13;99049.22;4900160;29;19935;-74
2020/12/24 10:03:34;;;;;;;;;;;;;;;5.71;94.31;99042.47;4900136;29;19928;-74
2020/12/24 10:06:01;;;;;;;;;;;;;;;5.72;94.26;99041.63;4898650;29;19983;-75
2020/12/24 10:08:28;;;;;;;;;;;;;;;5.71;94.62;99034.88;4899972;29;19982;-75
2020/12/24 10:10:55;;;;;;;;;;;;;;;5.70;94.42;99028.13;4899905;29;19928;-75
2020/12/24 10:13:23;;;;;;;;;;;;;;;5.72;94.15;99026.44;4899777;29;19931;-75
2020/12/24 10:15:50;;;;;;;;;;;;;;;5.74;94.22;99029.81;4899730;29;19967;-75
2020/12/24 10:18:18;;;;;;;;;;;;;;;5.76;94.21;99020.59;4899718;29;19927;-75
2020/12/24 10:20:48;;;;;;;;;;;;;;;5.77;94.67;99019.72;4898186;29;19928;-75
2020/12/24 10:23:16;;;;;;;;;;;;;;;5.78;94.68;99027.31;4899628;29;20454;-75
2020/12/24 10:25:43;;;;;;;;;;;;;;;5.78;94.13;99022.25;4898644;29;19928;-74
2020/12/24 10:28:11;;;;;;;;;;;;;;;5.79;94.12;99023.13;4899928;29;20398;-75
2020/12/24 10:30:38;;;;;;;;;;;;;;;5.80;94.36;99019.75;4883294;29;19927;-74
2020/12/24 10:33:05;;;;;;;;;;;;;;;5.78;94.24;99016.38;4899481;29;19928;-71
2020/12/24 10:35:35;;;;;;;;;;;;;;;5.79;94.35;99020.59;4899470;29;19927;-71
2020/12/24 10:38:04;;;;;;;;;;;;;;;5.82;94.12;99013.03;4899638;29;19928;-72
2020/12/24 10:40:32;;;;;;;;;;;;;;;5.85;94.48;99008.03;4899205;29;19931;-73
2020/12/24 10:42:59;;;;;;;;;;;;;;;5.87;94.21;99011.41;4899357;29;19934;-72
2020/12/24 10:45:27;;;;;;;;;;;;;;;5.87;94.36;99006.34;4899247;29;19927;-72
2020/12/24 10:47:54;;;;;;;;;;;;;;;5.87;94.25;99016.47;4899331;29;19934;-72
2020/12/24 10:50:24;;;;;;;;;;;;;;;5.87;94.18;99011.41;4899321;29;20408;-72
2020/12/24 10:52:52;;;;;;;;;;;;;;;5.89;94.34;99002.13;4899205;29;20026;-71
2020/12/24 10:55:21;;;;;;;;;;;;;;;5.93;94.18;98993.72;4899065;29;20297;-72
2020/12/24 10:57:48;;;;;;;;;;;;;;;5.95;94.33;98994.59;4899083;29;19932;-72
2020/12/24 11:00:15;;;;;;;;;;;;;;;5.96;94.42;98997.13;4898521;29;19927;-71
2020/12/24 11:02:44;;;;;;;;;;;;;;;5.96;94.35;99001.34;4898619;29;19928;-72
2020/12/24 11:05:11;;;;;;;;;;;;;;;5.97;94.50;99000.50;4898048;29;19928;-71
2020/12/24 11:07:38;;;;;;;;;;;;;;;5.97;94.40;98987.84;4898787;29;20026;-72
2020/12/24 11:10:05;;;;;;;;;;;;;;;6.00;94.41;98990.38;4899027;29;19928;-71
2020/12/24 11:12:34;;;;;;;;;;;;;;;6.01;94.34;98981.94;4898944;29;19931;-72
2020/12/24 11:15:16;;;;;;;;;;;;;;;6.03;93.99;98986.19;4823178;29;20038;-72
2020/12/24 11:17:43;;;;;;;;;;;;;;;6.04;94.49;98981.97;4823120;29;19929;-72
2020/12/24 11:20:11;;;;;;;;;;;;;;;6.06;94.41;98976.09;4823289;29;19936;-72
2020/12/24 11:22:38;;;;;;;;;;;;;;;6.07;94.52;98970.16;4823003;29;19928;-71
2020/12/24 11:25:06;;;;;;;;;;;;;;;6.08;94.56;98976.09;4823157;29;19929;-71
2020/12/24 11:27:33;;;;;;;;;;;;;;;6.07;94.31;98964.25;4823000;29;19929;-71
2020/12/24 11:30:03;;;;;;;;;;;;;;;6.04;94.15;98957.50;4823344;29;19929;-72
2020/12/24 11:32:32;;;;;;;;;;;;;;;6.05;94.14;98950.72;4823020;29;19940;-72
2020/12/24 11:34:59;;;;;;;;;;;;;;;6.04;94.17;98952.44;4823083;29;19951;-72
2020/12/24 11:37:28;;;;;;;;;;;;;;;6.04;94.69;98954.13;4822938;29;20388;-72
2020/12/24 11:39:56;;;;;;;;;;;;;;;6.04;94.50;98959.19;4823038;29;19928;-72
2020/12/24 11:42:24;;;;;;;;;;;;;;;6.03;94.39;98947.34;4793326;29;20455;-72
2020/12/24 11:44:51;;;;;;;;;;;;;;;6.07;94.68;98959.19;4822871;29;20431;-72
2020/12/24 11:47:20;;;;;;;;;;;;;;;6.08;94.95;98960.88;4822832;29;19929;-72
2020/12/24 11:49:47;;;;;;;;;;;;;;;6.11;94.51;98960.91;4822833;29;19941;-71
2020/12/24 11:52:16;;;;;;;;;;;;;;;6.13;94.36;98963.44;4853757;29;19932;-72
2020/12/24 11:54:43;;;;;;;;;;;;;;;6.14;94.75;98955.88;4898547;29;19927;-72
2020/12/24 11:57:11;;;;;;;;;;;;;;;6.16;94.25;98949.13;4897623;29;19932;-71
2020/12/24 11:59:40;;;;;;;;;;;;;;;6.18;94.78;98947.44;4898473;29;19931;-72
2020/12/24 12:02:07;;;;;;;;;;;;;;;6.21;94.96;98942.38;4898816;29;19986;-72
2020/12/24 12:04:36;;;;;;;;;;;;;;;6.21;94.67;98942.38;4898508;29;19928;-72
2020/12/24 12:07:04;;;;;;;;;;;;;;;6.24;94.44;98936.50;4898265;29;19979;-72
2020/12/24 12:09:31;;;;;;;;;;;;;;;6.27;94.96;98932.25;4898449;29;19931;-72
2020/12/24 12:11:58;;;;;;;;;;;;;;;6.30;95.16;98933.97;4899240;29;20066;-72
2020/12/24 12:14:26;;;;;;;;;;;;;;;6.32;94.38;98925.53;4901961;29;20014;-72
2020/12/24 12:16:56;;;;;;;;;;;;;;;6.34;94.80;98928.91;4885136;29;19927;-72
2020/12/24 12:19:24;;;;;;;;;;;;;;;6.38;94.83;98928.06;4901919;29;19936;-72
2020/12/24 12:21:52;;;;;;;;;;;;;;;6.39;94.98;98922.19;4901682;29;19933;-72
2020/12/24 12:24:20;;;;;;;;;;;;;;;6.43;94.85;98928.94;4901851;29;19928;-72
2020/12/24 12:26:50;;;;;;;;;;;;;;;6.43;95.20;98916.28;4901800;29;19927;-72
2020/12/24 12:29:18;;;;;;;;;;;;;;;6.46;95.09;98912.91;4901854;29;19934;-72
2020/12/24 12:31:45;;;;;;;;;;;;;;;6.46;95.06;98912.91;4902026;29;19931;-72
2020/12/24 12:34:14;;;;;;;;;;;;;;;6.44;95.06;98909.53;4901458;29;20390;-72
2020/12/24 12:36:41;;;;;;;;;;;;;;;6.45;95.04;98913.75;4901691;29;20290;-72
2020/12/24 12:39:09;;;;;;;;;;;;;;;6.43;95.19;98908.66;4902296;29;19931;-72
2020/12/24 12:41:37;;;;;;;;;;;;;;;6.42;94.80;98904.47;4901553;29;19927;-72
2020/12/24 12:44:06;;;;;;;;;;;;;;;6.40;94.66;98908.69;4900581;29;19934;-72
2020/12/24 12:46:34;;;;;;;;;;;;;;;6.42;95.16;98906.13;4901400;29;19927;-72
2020/12/24 12:49:02;;;;;;;;;;;;;;;6.42;95.28;98912.06;4901436;29;19938;-72
2020/12/24 12:51:29;;;;;;;;;;;;;;;6.43;95.26;98920.53;4901358;29;20393;-72
2020/12/24 12:53:56;;;;;;;;;;;;;;;6.42;94.97;98918.81;4886868;29;19980;-71
2020/12/24 12:56:31;;;;;;;;;;;;;;;6.42;94.85;98919.66;4895270;29;19927;-74
2020/12/24 12:59:00;;;;;;;;;;;;;;;6.43;95.33;98913.75;4886022;29;20031;-71
2020/12/24 13:01:28;;;;;;;;;;;;;;;6.45;95.11;98911.22;4891939;29;19959;-72
2020/12/24 13:04:11;;;;;;;;;;;;;;;6.43;95.26;98916.28;4882456;29;19935;-71